Time;durP1;ratioP1;P1;durP2;ratioP2;P2;SDS_P1;SDS_P2;PMS_P1;PMS_P2;Temp;Humidity;BMP_temperature;BMP_pressure;BME280_temperature;BME280_humidity;BME280_pressure;Samples;Min_cycle;Max_cycle;Signal;HPM_P1;HPM_P2
2022/03/03 00:00:47;;;;;;;163.77;68.90;;;;;;;-2.38;100.00;99367.06;2082056;28;20562;-70
2022/03/03 00:01:51;;;;;;;166.82;68.22;;;;;;;-2.39;100.00;99373.28;2089608;28;20566;-70
2022/03/03 00:02:55;;;;;;;171.73;71.82;;;;;;;-2.38;100.00;99371.47;2089515;28;20201;-70
2022/03/03 00:03:59;;;;;;;152.68;67.35;;;;;;;-2.38;100.00;99361.81;2081982;28;20270;-70
2022/03/03 00:05:01;;;;;;;154.65;66.60;;;;;;;-2.35;100.00;99360.59;2082324;28;20211;-70
2022/03/03 00:06:05;;;;;;;179.93;71.28;;;;;;;-2.33;100.00;99359.41;2081720;28;20192;-70
2022/03/03 00:07:07;;;;;;;165.10;70.65;;;;;;;-2.32;100.00;99365.44;2081690;28;20207;-70
2022/03/03 00:08:11;;;;;;;172.15;71.05;;;;;;;-2.32;100.00;99362.84;2073460;28;20200;-70
2022/03/03 00:09:17;;;;;;;169.27;70.63;;;;;;;-2.32;100.00;99355.78;2073700;28;20200;-70
2022/03/03 00:10:21;;;;;;;165.23;69.03;;;;;;;-2.32;100.00;99355.78;2073815;28;20235;-70
2022/03/03 00:11:23;;;;;;;164.93;68.80;;;;;;;-2.34;100.00;99357.81;2073703;28;20204;-70
2022/03/03 00:12:25;;;;;;;164.20;71.25;;;;;;;-2.34;100.00;99357.81;2081460;28;20199;-71
2022/03/03 00:13:27;;;;;;;154.40;69.20;;;;;;;-2.32;100.00;99355.78;2081401;28;20534;-71
2022/03/03 00:14:30;;;;;;;162.38;69.40;;;;;;;-2.33;100.00;99356.81;2081383;28;20262;-71
2022/03/03 00:15:34;;;;;;;154.32;69.32;;;;;;;-2.33;100.00;99353.38;2081328;28;20199;-72
2022/03/03 00:16:38;;;;;;;156.07;69.22;;;;;;;-2.33;100.00;99353.38;2081657;28;20183;-72
2022/03/03 00:17:43;;;;;;;160.35;68.57;;;;;;;-2.35;100.00;99350.16;2081622;28;20200;-71
2022/03/03 00:18:45;;;;;;;160.55;68.90;;;;;;;-2.32;100.00;99352.38;2073499;28;20235;-71
2022/03/03 00:19:48;;;;;;;166.10;72.13;;;;;;;-2.32;100.00;99350.56;2081444;28;20658;-71
2022/03/03 00:20:55;;;;;;;170.65;70.85;;;;;;;-2.32;100.00;99350.56;2082071;28;20228;-71
2022/03/03 00:21:59;;;;;;;159.10;70.43;;;;;;;-2.33;100.00;99343.75;2080838;28;20211;-71
2022/03/03 00:23:02;;;;;;;173.40;71.45;;;;;;;-2.30;100.00;99350.34;2081372;28;20571;-71
2022/03/03 00:24:06;;;;;;;165.65;70.43;;;;;;;-2.30;100.00;99342.53;2081842;28;20195;-71
2022/03/03 00:25:10;;;;;;;161.25;68.75;;;;;;;-2.28;100.00;99351.75;2081933;28;20195;-71
2022/03/03 00:26:13;;;;;;;150.00;67.68;;;;;;;-2.32;100.00;99334.88;2082205;28;20566;-72
2022/03/03 00:27:20;;;;;;;156.73;65.93;;;;;;;-2.28;100.00;99346.53;2081986;28;20191;-71
2022/03/03 00:28:24;;;;;;;171.50;70.60;;;;;;;-2.26;100.00;99346.31;2081885;28;20650;-71
2022/03/03 00:29:31;;;;;;;158.23;68.85;;;;;;;-2.25;100.00;99340.09;2081997;28;20184;-71
2022/03/03 00:30:35;;;;;;;167.13;70.22;;;;;;;-2.23;100.00;99347.72;2081899;28;20634;-72
2022/03/03 00:31:38;;;;;;;173.05;70.45;;;;;;;-2.22;100.00;99350.13;2082016;28;20196;-71
2022/03/03 00:32:40;;;;;;;164.00;67.88;;;;;;;-2.20;100.00;99353.34;2082141;28;20511;-71
2022/03/03 00:33:45;;;;;;;164.93;67.90;;;;;;;-2.21;100.00;99345.72;2081846;28;20219;-72
2022/03/03 00:34:46;;;;;;;165.85;70.63;;;;;;;-2.15;100.00;99355.34;2081590;28;20203;-71
2022/03/03 00:35:50;;;;;;;163.65;69.05;;;;;;;-2.15;100.00;99350.91;2081342;28;20603;-71
2022/03/03 00:36:52;;;;;;;161.68;69.32;;;;;;;-2.15;100.00;99344.91;2072713;28;20599;-71
2022/03/03 00:38:00;;;;;;;157.55;67.03;;;;;;;-2.13;100.00;99348.09;2072743;28;20219;-71
2022/03/03 00:39:03;;;;;;;149.25;66.18;;;;;;;-2.13;100.00;99346.28;2073748;28;20220;-71
2022/03/03 00:40:07;;;;;;;154.02;66.53;;;;;;;-2.13;100.00;99348.09;2081594;28;20200;-71
2022/03/03 00:41:10;;;;;;;155.50;66.10;;;;;;;-2.13;100.00;99345.47;2081113;28;20207;-71
2022/03/03 00:42:14;;;;;;;152.75;67.15;;;;;;;-2.10;100.00;99350.28;2073314;28;20243;-69
2022/03/03 00:43:18;;;;;;;160.43;68.18;;;;;;;-2.12;100.00;99340.03;2073038;28;20285;-71
2022/03/03 00:44:24;;;;;;;159.38;67.90;;;;;;;-2.11;100.00;99339.03;2073245;28;20201;-71
2022/03/03 00:45:27;;;;;;;172.38;72.78;;;;;;;-2.11;100.00;99335.63;2073884;28;20200;-71
2022/03/03 00:46:31;;;;;;;178.07;71.05;;;;;;;-2.10;100.00;99332.00;2073730;28;20536;-71
2022/03/03 00:47:33;;;;;;;161.35;70.78;;;;;;;-2.10;100.00;99337.22;2073963;28;20196;-71
2022/03/03 00:48:37;;;;;;;165.48;71.55;;;;;;;-2.13;100.00;99332.41;2073107;28;20193;-71
2022/03/03 00:49:38;;;;;;;156.70;68.75;;;;;;;-2.13;100.00;99333.22;2073144;28;20204;-71
2022/03/03 00:50:43;;;;;;;164.02;68.68;;;;;;;-2.13;100.00;99327.19;2073389;28;20192;-71
2022/03/03 00:51:46;;;;;;;151.32;68.20;;;;;;;-2.14;100.00;99325.59;2080424;28;20563;-71
2022/03/03 00:52:49;;;;;;;171.25;74.35;;;;;;;-2.14;100.00;99328.19;2081469;28;20705;-71
2022/03/03 00:53:53;;;;;;;165.35;70.97;;;;;;;-2.14;100.00;99325.59;2081483;28;20313;-71
2022/03/03 00:54:57;;;;;;;164.57;69.95;;;;;;;-2.16;100.00;99323.19;2081943;28;20176;-71
2022/03/03 00:55:59;;;;;;;162.45;67.82;;;;;;;-2.13;100.00;99322.75;2081457;28;20207;-72
2022/03/03 00:57:02;;;;;;;157.43;69.32;;;;;;;-2.12;100.00;99326.19;2073958;28;20208;-71
2022/03/03 00:58:06;;;;;;;172.70;70.78;;;;;;;-2.19;100.00;99323.56;2081249;28;20203;-71
2022/03/03 00:59:10;;;;;;;162.05;69.05;;;;;;;-2.15;100.00;99321.38;2081384;28;20669;-71
2022/03/03 01:00:14;;;;;;;164.55;70.18;;;;;;;-2.16;100.00;99319.78;2081356;28;20627;-71
2022/03/03 01:01:16;;;;;;;153.63;68.57;;;;;;;-2.16;100.00;99323.19;2081164;28;20215;-71
2022/03/03 01:02:18;;;;;;;167.65;71.03;;;;;;;-2.17;100.00;99321.59;2073096;28;20593;-71
2022/03/03 01:03:23;;;;;;;165.00;71.35;;;;;;;-2.17;100.00;99320.75;2073129;28;20219;-71
2022/03/03 01:04:26;;;;;;;165.18;70.57;;;;;;;-2.15;100.00;99318.75;2082329;28;20204;-71
2022/03/03 01:05:28;;;;;;;168.40;72.47;;;;;;;-2.17;100.00;99312.91;2082715;28;20276;-71
2022/03/03 01:06:30;;;;;;;165.70;69.57;;;;;;;-2.17;100.00;99315.53;2083006;28;20647;-71
2022/03/03 01:07:31;;;;;;;158.00;72.80;;;;;;;-2.19;100.00;99301.88;2083302;28;20278;-71
2022/03/03 01:08:36;;;;;;;164.90;70.95;;;;;;;-2.17;100.00;99311.13;2083360;28;20218;-71
2022/03/03 01:09:38;;;;;;;168.32;71.38;;;;;;;-2.16;100.00;99302.28;2082838;28;20216;-71
2022/03/03 01:10:43;;;;;;;169.40;71.63;;;;;;;-2.18;100.00;99303.47;2090740;28;20317;-71
2022/03/03 01:11:46;;;;;;;165.18;71.40;;;;;;;-2.17;100.00;99305.06;2090721;28;20207;-71
2022/03/03 01:12:54;;;;;;;167.55;70.88;;;;;;;-2.18;100.00;99308.69;2090773;28;20797;-71
2022/03/03 01:13:56;;;;;;;168.25;69.63;;;;;;;-2.18;100.00;99306.88;2089939;28;20211;-71
2022/03/03 01:15:02;;;;;;;173.35;71.55;;;;;;;-2.18;100.00;99298.25;2083404;28;20194;-71
2022/03/03 01:16:06;;;;;;;167.50;70.78;;;;;;;-2.18;100.00;99301.66;2083480;28;20175;-72
2022/03/03 01:17:09;;;;;;;169.65;72.22;;;;;;;-2.17;100.00;99305.06;2083237;28;20241;-71
2022/03/03 01:18:10;;;;;;;163.18;69.95;;;;;;;-2.19;100.00;99301.88;2082841;28;20704;-72
2022/03/03 01:19:14;;;;;;;168.10;72.22;;;;;;;-2.18;100.00;99304.28;2082541;28;20630;-71
2022/03/03 01:20:15;;;;;;;160.40;72.82;;;;;;;-2.18;100.00;99308.69;2083122;28;20200;-71
2022/03/03 01:21:18;;;;;;;163.50;71.47;;;;;;;-2.19;100.00;99309.72;2082143;28;20631;-72
2022/03/03 01:22:20;;;;;;;166.85;69.85;;;;;;;-2.19;100.00;99307.91;2082877;28;20607;-71
2022/03/03 01:23:24;;;;;;;172.23;72.63;;;;;;;-2.19;100.00;99302.66;2082534;28;20531;-71
2022/03/03 01:24:31;;;;;;;160.35;71.28;;;;;;;-2.16;100.00;99309.31;2082658;28;20271;-71
2022/03/03 01:25:38;;;;;;;162.02;70.15;;;;;;;-2.17;100.00;99311.13;2083139;28;20194;-71
2022/03/03 01:26:39;;;;;;;162.10;70.45;;;;;;;-2.17;100.00;99302.47;2083280;28;20172;-71
2022/03/03 01:27:41;;;;;;;165.00;69.70;;;;;;;-2.17;100.00;99300.69;2090542;28;20203;-69
2022/03/03 01:28:46;;;;;;;169.80;71.07;;;;;;;-2.17;100.00;99298.06;2082412;28;20281;-69
2022/03/03 01:29:50;;;;;;;159.75;69.97;;;;;;;-2.16;100.00;99302.28;2082654;28;20184;-71
2022/03/03 01:30:59;;;;;;;174.32;71.75;;;;;;;-2.16;100.00;99302.28;2083348;28;20202;-69
2022/03/03 01:32:04;;;;;;;171.80;74.35;;;;;;;-2.16;100.00;99306.69;2090533;28;20669;-69
2022/03/03 01:33:07;;;;;;;158.05;69.05;;;;;;;-2.16;100.00;99306.69;2090359;28;20191;-69
2022/03/03 01:34:14;;;;;;;169.10;69.88;;;;;;;-2.17;100.00;99300.69;2083027;28;20192;-69
2022/03/03 01:35:15;;;;;;;153.93;67.95;;;;;;;-2.17;100.00;99300.69;2082763;28;20666;-69
2022/03/03 01:36:19;;;;;;;159.47;68.90;;;;;;;-2.15;100.00;99308.31;2082012;28;20224;-69
2022/03/03 01:37:23;;;;;;;153.45;67.00;;;;;;;-2.14;100.00;99307.28;2083036;28;20187;-69
2022/03/03 01:38:31;;;;;;;148.13;67.40;;;;;;;-2.14;100.00;99302.06;2082889;28;20232;-70
2022/03/03 01:39:37;;;;;;;155.63;69.82;;;;;;;-2.13;100.00;99293.22;2083056;28;20234;-70
2022/03/03 01:40:39;;;;;;;161.48;68.57;;;;;;;-2.13;100.00;99298.44;2082992;28;20229;-69
2022/03/03 01:41:41;;;;;;;160.88;68.38;;;;;;;-2.09;100.00;99295.19;2083247;28;20223;-70
2022/03/03 01:42:45;;;;;;;152.65;65.90;;;;;;;-2.11;100.00;99293.78;2083179;28;20187;-70
2022/03/03 01:43:52;;;;;;;145.55;65.93;;;;;;;-2.09;100.00;99297.00;2082294;28;20670;-70
2022/03/03 01:44:58;;;;;;;156.60;68.15;;;;;;;-2.11;100.00;99302.44;2075386;28;20279;-69
2022/03/03 01:46:04;;;;;;;158.32;66.28;;;;;;;-2.11;100.00;99294.59;2082478;28;20597;-69
2022/03/03 01:47:17;;;;;;;157.15;69.50;;;;;;;-2.13;100.00;99293.22;2090590;28;20210;-70
2022/03/03 01:48:22;;;;;;;149.40;66.00;;;;;;;-2.12;100.00;99292.19;2089085;28;20190;-69
2022/03/03 01:49:27;;;;;;;139.32;64.20;;;;;;;-2.13;100.00;99288.78;2082866;28;20188;-69
2022/03/03 01:50:28;;;;;;;156.30;68.30;;;;;;;-2.14;100.00;99283.78;2083034;28;20195;-69
2022/03/03 01:51:33;;;;;;;151.45;67.45;;;;;;;-2.13;100.00;99285.38;2081789;28;20223;-69
2022/03/03 01:52:38;;;;;;;152.27;65.90;;;;;;;-2.14;100.00;99279.34;2082345;28;20719;-70
2022/03/03 01:53:40;;;;;;;155.85;68.68;;;;;;;-2.13;100.00;99278.31;2082860;28;20203;-70
2022/03/03 01:54:46;;;;;;;151.18;66.15;;;;;;;-2.13;100.00;99280.94;2082192;28;20204;-70
2022/03/03 01:55:48;;;;;;;150.60;65.55;;;;;;;-2.08;100.00;99288.19;2082470;28;20219;-70
2022/03/03 01:56:52;;;;;;;146.45;65.78;;;;;;;-2.08;100.00;99288.19;2082238;28;20678;-70
2022/03/03 01:57:57;;;;;;;151.95;64.30;;;;;;;-2.11;100.00;99283.34;2082326;28;20658;-70
2022/03/03 01:58:59;;;;;;;150.25;66.25;;;;;;;-2.12;100.00;99281.75;2082843;28;20207;-70
2022/03/03 02:00:03;;;;;;;147.30;67.57;;;;;;;-2.12;100.00;99286.97;2083031;28;20274;-70
2022/03/03 02:01:18;;;;;;;158.05;68.00;;;;;;;-2.13;100.00;99277.53;2082900;28;20403;-70
2022/03/03 02:02:21;;;;;;;150.25;63.42;;;;;;;-2.13;100.00;99282.75;2082603;28;20277;-70
2022/03/03 02:03:24;;;;;;;147.25;66.43;;;;;;;-2.11;100.00;99284.16;2082274;28;20678;-70
2022/03/03 02:04:25;;;;;;;161.77;66.80;;;;;;;-2.13;100.00;99280.16;2082426;28;20208;-70
2022/03/03 02:05:27;;;;;;;153.95;65.68;;;;;;;-2.14;100.00;99283.78;2082256;28;20188;-70
2022/03/03 02:06:29;;;;;;;150.82;66.63;;;;;;;-2.14;100.00;99283.78;2082648;28;20223;-70
2022/03/03 02:07:38;;;;;;;153.45;64.80;;;;;;;-2.16;100.00;99281.38;2082945;28;20195;-70
2022/03/03 02:08:41;;;;;;;155.68;66.43;;;;;;;-2.18;100.00;99280.75;2083039;28;20191;-70
2022/03/03 02:09:43;;;;;;;148.27;65.78;;;;;;;-2.17;100.00;99278.94;2082630;28;20236;-70
2022/03/03 02:10:44;;;;;;;141.68;64.05;;;;;;;-2.19;100.00;99281.75;2082221;28;20275;-70
2022/03/03 02:11:47;;;;;;;149.13;66.78;;;;;;;-2.20;100.00;99281.97;2090331;28;20191;-70
2022/03/03 02:12:48;;;;;;;160.32;69.13;;;;;;;-2.18;100.00;99282.56;2090233;28;20194;-70
2022/03/03 02:13:54;;;;;;;138.32;63.97;;;;;;;-2.19;100.00;99280.97;2082840;28;20274;-70
2022/03/03 02:14:59;;;;;;;153.05;66.63;;;;;;;-2.19;100.00;99283.56;2081974;28;20557;-70
2022/03/03 02:16:01;;;;;;;145.85;64.63;;;;;;;-2.19;100.00;99279.16;2081529;28;20196;-70
2022/03/03 02:17:04;;;;;;;143.45;66.38;;;;;;;-2.19;100.00;99276.53;2082725;28;20248;-70
2022/03/03 02:18:07;;;;;;;144.60;64.40;;;;;;;-2.20;100.00;99271.53;2082776;28;20194;-70
2022/03/03 02:19:14;;;;;;;148.50;66.88;;;;;;;-2.20;100.00;99285.38;2082593;28;20572;-70
2022/03/03 02:20:23;;;;;;;158.80;67.22;;;;;;;-2.21;100.00;99285.59;2082833;28;20176;-70
2022/03/03 02:21:26;;;;;;;152.65;66.63;;;;;;;-2.21;100.00;99277.75;2082478;28;20219;-70
2022/03/03 02:22:37;;;;;;;141.30;64.50;;;;;;;-2.21;100.00;99272.53;2090054;28;20298;-70
2022/03/03 02:23:38;;;;;;;146.98;64.18;;;;;;;-2.22;100.00;99271.75;2089171;28;20684;-70
2022/03/03 02:24:40;;;;;;;142.65;64.75;;;;;;;-2.21;100.00;99270.72;2083018;28;20549;-70
2022/03/03 02:25:43;;;;;;;152.68;68.90;;;;;;;-2.21;100.00;99272.53;2081956;28;20280;-70
2022/03/03 02:26:48;;;;;;;144.20;67.32;;;;;;;-2.22;100.00;99268.31;2074668;28;20200;-70
2022/03/03 02:27:52;;;;;;;169.10;68.20;;;;;;;-2.25;100.00;99266.13;2082073;28;20266;-70
2022/03/03 02:29:01;;;;;;;152.98;69.13;;;;;;;-2.19;100.00;99267.91;2082579;28;20278;-70
2022/03/03 02:30:04;;;;;;;157.48;69.90;;;;;;;-2.20;100.00;99268.91;2082762;28;20221;-70
2022/03/03 02:31:06;;;;;;;156.23;67.82;;;;;;;-2.22;100.00;99261.28;2082594;28;20199;-70
2022/03/03 02:32:08;;;;;;;153.48;68.90;;;;;;;-2.24;100.00;99262.50;2082214;28;20294;-70
2022/03/03 02:33:10;;;;;;;151.10;68.95;;;;;;;-2.23;100.00;99259.69;2081904;28;20580;-70
2022/03/03 02:34:11;;;;;;;153.07;69.30;;;;;;;-2.22;100.00;99265.72;2082294;28;20234;-70
2022/03/03 02:35:17;;;;;;;172.93;71.60;;;;;;;-2.21;100.00;99259.47;2081996;28;20202;-70
2022/03/03 02:36:22;;;;;;;150.05;68.40;;;;;;;-2.18;100.00;99264.28;2072973;28;20224;-70
2022/03/03 02:37:33;;;;;;;164.50;71.35;;;;;;;-2.19;100.00;99262.66;2081987;28;20196;-70
2022/03/03 02:38:34;;;;;;;166.10;70.63;;;;;;;-2.19;100.00;99265.28;2082096;28;20390;-70
2022/03/03 02:39:41;;;;;;;166.73;70.27;;;;;;;-2.20;100.00;99266.31;2082034;28;20310;-70
2022/03/03 02:40:45;;;;;;;154.60;69.28;;;;;;;-2.20;100.00;99258.47;2081999;28;20505;-70
2022/03/03 02:41:47;;;;;;;172.80;76.67;;;;;;;-2.20;100.00;99261.06;2081865;28;20267;-70
2022/03/03 02:42:49;;;;;;;178.40;72.88;;;;;;;-2.21;100.00;99257.66;2081837;28;20458;-70
2022/03/03 02:43:59;;;;;;;181.40;74.68;;;;;;;-2.21;100.00;99255.03;2081872;28;20192;-70
2022/03/03 02:45:01;;;;;;;172.52;74.47;;;;;;;-2.22;100.00;99253.44;2082599;28;20187;-70
2022/03/03 02:46:02;;;;;;;166.77;71.82;;;;;;;-2.22;100.00;99250.03;2082094;28;20200;-70
2022/03/03 02:47:05;;;;;;;175.40;75.75;;;;;;;-2.21;100.00;99251.63;2081872;28;20196;-70
2022/03/03 02:48:10;;;;;;;173.95;73.63;;;;;;;-2.20;100.00;99256.66;2082483;28;20207;-70
2022/03/03 02:49:14;;;;;;;171.55;75.03;;;;;;;-2.19;100.00;99250.41;2082493;28;20188;-70
2022/03/03 02:50:18;;;;;;;170.30;76.18;;;;;;;-2.19;100.00;99245.19;2082435;28;20191;-70
2022/03/03 02:51:22;;;;;;;161.70;73.85;;;;;;;-2.19;100.00;99249.59;2082044;28;20227;-70
2022/03/03 02:52:24;;;;;;;169.27;73.95;;;;;;;-2.21;100.00;99247.22;2082703;28;20192;-70
2022/03/03 02:53:26;;;;;;;180.43;75.93;;;;;;;-2.20;100.00;99251.41;2082102;28;20535;-70
2022/03/03 02:54:29;;;;;;;181.90;79.47;;;;;;;-2.18;100.00;99249.38;2081778;28;20204;-70
2022/03/03 02:55:30;;;;;;;175.57;78.75;;;;;;;-2.19;100.00;99249.59;2082409;28;20654;-70
2022/03/03 02:57:53;;;;;;;180.40;79.00;;;;;;;-2.22;100.00;99248.22;2082494;28;20545;-70
2022/03/03 02:58:00;;;;;;;168.07;76.65;;;;;;;-2.22;100.00;99248.22;2082199;28;20191;-70
2022/03/03 02:59:02;;;;;;;179.05;79.05;;;;;;;-2.22;100.00;99250.03;2082494;28;20176;-70
2022/03/03 03:00:06;;;;;;;180.27;78.90;;;;;;;-2.25;100.00;99251.25;2081887;28;20224;-70
2022/03/03 03:01:07;;;;;;;182.57;80.82;;;;;;;-2.25;100.00;99243.41;2082068;28;20241;-70
2022/03/03 03:02:09;;;;;;;176.30;76.10;;;;;;;-2.27;100.00;99243.59;2073631;28;20196;-70
2022/03/03 03:03:10;;;;;;;175.60;76.95;;;;;;;-2.25;100.00;99242.63;2081795;28;20274;-70
2022/03/03 03:04:14;;;;;;;181.00;76.05;;;;;;;-2.27;100.00;99238.38;2089869;28;20688;-70
2022/03/03 03:05:18;;;;;;;173.35;76.05;;;;;;;-2.28;100.00;99242.00;2081667;28;20204;-70
2022/03/03 03:06:24;;;;;;;178.77;75.90;;;;;;;-2.29;100.00;99240.41;2073602;28;20328;-70
2022/03/03 03:07:25;;;;;;;169.57;74.18;;;;;;;-2.28;100.00;99238.59;2081925;28;20199;-70
2022/03/03 03:08:29;;;;;;;172.83;74.53;;;;;;;-2.30;100.00;99232.78;2082514;28;20195;-70
2022/03/03 03:09:31;;;;;;;165.00;73.70;;;;;;;-2.33;100.00;99228.78;2082442;28;20211;-70
2022/03/03 03:10:34;;;;;;;171.25;74.35;;;;;;;-2.34;100.00;99224.56;2082425;28;20183;-70
2022/03/03 03:11:38;;;;;;;162.35;74.97;;;;;;;-2.34;100.00;99232.41;2081503;28;20208;-70
2022/03/03 03:12:41;;;;;;;162.27;72.50;;;;;;;-2.34;100.00;99227.19;2082074;28;20287;-70
2022/03/03 03:13:46;;;;;;;166.07;72.35;;;;;;;-2.34;100.00;99237.63;2081676;28;20554;-70
2022/03/03 03:14:48;;;;;;;178.00;75.10;;;;;;;-2.36;100.00;99228.38;2081945;28;20215;-70
2022/03/03 03:15:49;;;;;;;168.88;72.60;;;;;;;-2.38;100.00;99225.97;2081765;28;20716;-70
2022/03/03 03:16:55;;;;;;;164.93;71.45;;;;;;;-2.37;100.00;99227.56;2082480;28;20207;-70
2022/03/03 03:17:59;;;;;;;164.30;72.10;;;;;;;-2.36;100.00;99225.75;2082188;28;20210;-70
2022/03/03 03:19:00;;;;;;;166.52;73.93;;;;;;;-2.35;100.00;99225.53;2089830;28;20257;-70
2022/03/03 03:20:04;;;;;;;165.20;74.05;;;;;;;-2.35;100.00;99230.78;2081507;28;20234;-70
2022/03/03 03:21:05;;;;;;;163.63;73.78;;;;;;;-2.38;100.00;99222.56;2080954;28;20693;-70
2022/03/03 03:22:11;;;;;;;163.10;74.47;;;;;;;-2.36;100.00;99228.38;2073506;28;20665;-70
2022/03/03 03:23:14;;;;;;;177.60;75.18;;;;;;;-2.38;100.00;99225.97;2081804;28;20175;-70
2022/03/03 03:24:18;;;;;;;167.65;75.85;;;;;;;-2.37;100.00;99230.19;2082194;28;20204;-70
2022/03/03 03:25:21;;;;;;;169.88;74.43;;;;;;;-2.35;100.00;99232.59;2082001;28;20631;-70
2022/03/03 03:26:25;;;;;;;168.55;74.25;;;;;;;-2.39;100.00;99229.59;2073795;28;20295;-70
2022/03/03 03:27:28;;;;;;;161.70;73.82;;;;;;;-2.40;100.00;99232.44;2073040;28;20208;-70
2022/03/03 03:28:32;;;;;;;173.48;75.32;;;;;;;-2.38;100.00;99239.03;2081235;28;20195;-70
2022/03/03 03:29:34;;;;;;;169.30;75.93;;;;;;;-2.41;100.00;99231.63;2082302;28;20188;-70
2022/03/03 03:30:36;;;;;;;171.33;75.40;;;;;;;-2.45;100.00;99229.63;2089741;28;20191;-70
2022/03/03 03:31:37;;;;;;;172.02;74.57;;;;;;;-2.46;100.00;99234.03;2089729;28;20186;-70
2022/03/03 03:32:44;;;;;;;169.48;76.90;;;;;;;-2.49;100.00;99229.25;2082177;28;20220;-70
2022/03/03 03:33:46;;;;;;;173.95;77.32;;;;;;;-2.50;100.00;99232.06;2082111;28;20258;-70
2022/03/03 03:34:52;;;;;;;169.23;75.13;;;;;;;-2.54;100.00;99229.06;2082174;28;20646;-70
2022/03/03 03:35:56;;;;;;;165.50;76.78;;;;;;;-2.56;100.00;99238.91;2081835;28;20207;-70
2022/03/03 03:37:00;;;;;;;171.02;75.00;;;;;;;-2.61;100.00;99231.72;2082195;28;20172;-70
2022/03/03 03:38:06;;;;;;;168.38;73.82;;;;;;;-2.64;100.00;99229.50;2081985;28;20782;-70
2022/03/03 03:39:09;;;;;;;175.00;75.65;;;;;;;-2.68;100.00;99235.34;2082142;28;20252;-70
2022/03/03 03:40:15;;;;;;;167.95;75.85;;;;;;;-2.71;100.00;99236.53;2081764;28;20251;-70
2022/03/03 03:41:18;;;;;;;174.05;75.35;;;;;;;-2.73;100.00;99235.16;2081526;28;20192;-70
2022/03/03 03:42:19;;;;;;;172.50;76.13;;;;;;;-2.76;100.00;99232.94;2082069;28;20230;-70
2022/03/03 03:43:21;;;;;;;182.52;77.93;;;;;;;-2.81;100.00;99228.34;2089639;28;20685;-70
2022/03/03 03:44:25;;;;;;;175.65;75.90;;;;;;;-2.85;100.00;99235.78;2089536;28;20235;-70
2022/03/03 03:45:29;;;;;;;179.40;76.97;;;;;;;-2.85;100.00;99238.41;2082175;28;20242;-70
2022/03/03 03:46:32;;;;;;;182.63;79.15;;;;;;;-2.90;100.00;99234.78;2082133;28;20199;-70
2022/03/03 03:47:40;;;;;;;179.65;78.50;;;;;;;-2.94;100.00;99231.78;2089511;28;20603;-70
2022/03/03 03:48:47;;;;;;;183.88;79.97;;;;;;;-2.97;100.00;99232.19;2088902;28;20803;-70
2022/03/03 03:49:49;;;;;;;185.13;82.28;;;;;;;-2.98;100.00;99235.00;2082459;28;20176;-70
2022/03/03 03:50:51;;;;;;;185.55;77.82;;;;;;;-3.00;100.00;99237.81;2082028;28;20192;-70
2022/03/03 03:51:52;;;;;;;176.20;78.13;;;;;;;-3.02;100.00;99228.59;2081049;28;20218;-70
2022/03/03 03:52:54;;;;;;;180.10;81.07;;;;;;;-3.04;100.00;99230.59;2073226;28;20203;-70
2022/03/03 03:53:59;;;;;;;178.18;80.28;;;;;;;-3.02;100.00;99231.19;2073667;28;20550;-70
2022/03/03 03:55:02;;;;;;;174.10;78.72;;;;;;;-3.05;100.00;99235.00;2073889;28;20570;-70
2022/03/03 03:56:06;;;;;;;182.55;79.15;;;;;;;-3.09;100.00;99231.22;2081449;28;20329;-70
2022/03/03 03:57:07;;;;;;;188.88;81.13;;;;;;;-3.13;100.00;99228.22;2081650;28;20215;-70
2022/03/03 03:58:10;;;;;;;183.68;78.10;;;;;;;-3.11;100.00;99229.81;2073489;28;20683;-69
2022/03/03 03:59:13;;;;;;;175.80;79.63;;;;;;;-3.15;100.00;99232.00;2081542;28;20198;-70
2022/03/03 04:00:16;;;;;;;188.13;83.05;;;;;;;-3.16;100.00;99233.81;2081973;28;20207;-70
2022/03/03 04:01:18;;;;;;;175.02;78.53;;;;;;;-3.20;100.00;99226.63;2081656;28;20245;-70
2022/03/03 04:02:24;;;;;;;184.90;80.25;;;;;;;-3.20;100.00;99230.03;2073761;28;20200;-70
2022/03/03 04:03:26;;;;;;;182.88;81.57;;;;;;;-3.22;100.00;99232.00;2081869;28;20194;-71
2022/03/03 04:04:30;;;;;;;188.77;83.05;;;;;;;-3.25;100.00;99224.59;2081260;28;20199;-71
2022/03/03 04:05:32;;;;;;;183.88;80.93;;;;;;;-3.26;100.00;99227.41;2081514;28;20203;-71
2022/03/03 04:06:36;;;;;;;183.30;80.30;;;;;;;-3.26;100.00;99224.81;2081796;28;20310;-71
2022/03/03 04:07:39;;;;;;;191.30;81.97;;;;;;;-3.28;100.00;99213.78;2081387;28;20290;-71
2022/03/03 04:08:47;;;;;;;185.23;81.68;;;;;;;-3.30;100.00;99216.59;2081505;28;20361;-71
2022/03/03 04:09:51;;;;;;;189.40;82.32;;;;;;;-3.30;100.00;99215.75;2081977;28;20222;-71
2022/03/03 04:10:53;;;;;;;198.90;83.57;;;;;;;-3.30;100.00;99213.97;2081903;28;20275;-71
2022/03/03 04:11:54;;;;;;;189.15;82.85;;;;;;;-3.31;100.00;99204.53;2081381;28;20560;-71
2022/03/03 04:12:56;;;;;;;194.20;83.20;;;;;;;-3.29;100.00;99217.41;2081329;28;20290;-71
2022/03/03 04:13:58;;;;;;;183.82;80.75;;;;;;;-3.26;100.00;99217.78;2073593;28;20204;-71
2022/03/03 04:15:02;;;;;;;186.75;81.80;;;;;;;-3.28;100.00;99208.56;2081456;28;20266;-71
2022/03/03 04:16:05;;;;;;;174.00;79.75;;;;;;;-3.31;100.00;99208.94;2081991;28;20200;-71
2022/03/03 04:17:11;;;;;;;180.30;80.43;;;;;;;-3.28;100.00;99206.75;2081796;28;20203;-71
2022/03/03 04:18:14;;;;;;;184.73;81.50;;;;;;;-3.32;100.00;99202.94;2081667;28;20210;-71
2022/03/03 04:19:16;;;;;;;197.20;82.05;;;;;;;-3.36;100.00;99200.94;2081398;28;20267;-71
2022/03/03 04:20:18;;;;;;;187.90;82.43;;;;;;;-3.32;100.00;99191.69;2089539;28;20639;-71
2022/03/03 04:21:23;;;;;;;186.88;81.15;;;;;;;-3.34;100.00;99202.34;2080916;28;20215;-71
2022/03/03 04:22:26;;;;;;;185.88;78.85;;;;;;;-3.36;100.00;99200.94;2081550;28;20172;-71
2022/03/03 04:23:32;;;;;;;184.93;81.18;;;;;;;-3.36;100.00;99206.16;2081868;28;20571;-71
2022/03/03 04:24:36;;;;;;;190.18;82.15;;;;;;;-3.29;100.00;99199.13;2082198;28;20577;-71
2022/03/03 04:25:39;;;;;;;180.98;79.20;;;;;;;-3.33;100.00;99190.09;2081635;28;20203;-71
2022/03/03 04:26:42;;;;;;;188.00;81.45;;;;;;;-3.32;100.00;99192.50;2073543;28;20204;-71
2022/03/03 04:27:46;;;;;;;171.60;77.43;;;;;;;-3.34;100.00;99193.72;2081364;28;20191;-71
2022/03/03 04:28:49;;;;;;;180.45;79.85;;;;;;;-3.37;100.00;99188.91;2081939;28;20196;-71
2022/03/03 04:29:55;;;;;;;191.52;80.63;;;;;;;-3.36;100.00;99190.50;2081957;28;20195;-71
2022/03/03 04:30:59;;;;;;;182.00;81.15;;;;;;;-3.35;100.00;99186.91;2081573;28;20204;-71
2022/03/03 04:32:01;;;;;;;176.40;76.45;;;;;;;-3.38;100.00;99185.50;2081517;28;20221;-71
2022/03/03 04:33:03;;;;;;;191.13;80.32;;;;;;;-3.33;100.00;99195.31;2082045;28;20199;-71
2022/03/03 04:34:05;;;;;;;187.05;80.35;;;;;;;-3.34;100.00;99188.50;2082139;28;20196;-71
2022/03/03 04:35:09;;;;;;;191.70;79.18;;;;;;;-3.34;100.00;99191.09;2081940;28;20199;-71
2022/03/03 04:36:12;;;;;;;174.02;80.40;;;;;;;-3.33;100.00;99184.88;2081397;28;20651;-71
2022/03/03 04:37:17;;;;;;;188.20;81.22;;;;;;;-3.33;100.00;99184.88;2081621;28;20290;-71
2022/03/03 04:38:18;;;;;;;181.27;78.95;;;;;;;-3.29;100.00;99191.31;2073354;28;20308;-71
2022/03/03 04:39:21;;;;;;;193.50;82.32;;;;;;;-3.27;100.00;99184.06;2074230;28;20206;-71
2022/03/03 04:40:23;;;;;;;190.40;84.15;;;;;;;-3.23;100.00;99190.47;2083047;28;20212;-71
2022/03/03 04:41:28;;;;;;;191.13;81.38;;;;;;;-3.23;100.00;99191.28;2083519;28;20722;-71
2022/03/03 04:42:29;;;;;;;196.35;84.53;;;;;;;-3.24;100.00;99188.88;2083633;28;20226;-71
2022/03/03 04:43:33;;;;;;;204.00;84.53;;;;;;;-3.24;100.00;99188.88;2091073;28;20190;-71
2022/03/03 04:44:38;;;;;;;195.05;85.53;;;;;;;-3.26;100.00;99190.88;2082587;28;20207;-71
2022/03/03 04:45:42;;;;;;;205.65;87.05;;;;;;;-3.27;100.00;99194.50;2082672;28;20627;-71
2022/03/03 04:46:44;;;;;;;218.82;89.75;;;;;;;-3.29;100.00;99193.91;2082881;28;20626;-71